GB-0385 weather

Abbots Bromley Airfield
England, United Kingdom

Public forecast

Using degrees Celsius for public forecast. Weather courtesy of forecast.io.

Closest aviation weather report (METAR) to Abbots Bromley Airfield

Report is more than 6 hours old.

Closest report is DCAE Cosford Air Base, 18.2 nm (33.6 km) SW. Retrieved 2019/11/19 15:50 UTC (6 hours ago):

EGWC 191550Z 15004KT 9999 FEW018 BKN250 04/03 Q1013 RMK BLU

Closest aviation forecast (TAF) to Abbots Bromley Airfield

Closest forecast is East Midlands Airport, 20.9 nm (38.6 km) E. Retrieved 2019/11/19 18:00 UTC (4 hours ago):

TAF EGNX 191703Z 1918/2018 13009KT 9999 SCT040 TEMPO 1918/2006 8000 PROB40 TEMPO 1921/1924 4000 BR